createdAt,value
2018-12-26T00:04:48.674Z,97863.41
2018-12-26T00:07:17.181Z,97864.65
2018-12-26T00:09:45.681Z,97867.69
2018-12-26T00:12:14.220Z,97874.44
2018-12-26T00:14:42.722Z,97862.02
2018-12-26T00:17:11.229Z,97870.72
2018-12-26T00:20:19.784Z,97870.84
2018-12-26T00:22:48.288Z,97863.22
2018-12-26T00:25:16.833Z,97871.74
2018-12-26T00:27:47.082Z,97870.39
2018-12-26T00:30:15.580Z,97870.81
2018-12-26T00:35:38.095Z,97870.09
2018-12-26T00:38:19.053Z,97868.38
2018-12-26T00:40:47.559Z,97865.06
2018-12-26T00:43:16.063Z,97865.67
2018-12-26T00:45:44.601Z,97859.69
2018-12-26T00:48:13.109Z,97854.42
2018-12-26T00:50:41.610Z,97857.73
2018-12-26T00:55:44.562Z,97845.20
2018-12-26T00:58:13.064Z,97857.02
2018-12-26T01:03:15.817Z,97845.58
2018-12-26T01:08:18.359Z,97844.20
2018-12-26T01:10:46.872Z,97842.95
2018-12-26T01:13:15.427Z,97833.98
2018-12-26T01:15:43.927Z,97821.22
2018-12-26T01:18:24.299Z,97816.63
2018-12-26T01:23:16.973Z,97809.78
2018-12-26T01:25:45.472Z,97803.22
2018-12-26T01:30:47.758Z,97817.90
2018-12-26T01:33:16.255Z,97814.06
2018-12-26T01:38:19.127Z,97814.08
2018-12-26T01:40:47.631Z,97813.17
2018-12-26T01:43:16.171Z,97817.92
2018-12-26T01:45:44.675Z,97825.67
2018-12-26T01:48:13.179Z,97826.05
2018-12-26T01:53:15.927Z,97827.81
2018-12-26T01:55:44.432Z,97817.78
2018-12-26T02:00:46.567Z,97809.88
2018-12-26T02:03:34.498Z,97811.95
2018-12-26T02:06:02.995Z,97807.65
2018-12-26T02:08:31.498Z,97796.86
2018-12-26T02:11:00.012Z,97795.75
2018-12-26T02:13:28.511Z,97788.02
2018-12-26T02:15:57.009Z,97783.40
2018-12-26T02:21:18.797Z,97780.11
2018-12-26T02:23:47.332Z,97770.55
2018-12-26T02:26:15.903Z,97778.19
2018-12-26T02:28:44.411Z,97771.81
2018-12-26T02:31:12.970Z,97772.80
2018-12-26T02:33:41.473Z,97767.13
2018-12-26T02:36:09.968Z,97759.84
2018-12-26T02:38:38.499Z,97752.86
2018-12-26T02:41:06.999Z,97754.32
2018-12-26T02:43:35.501Z,97747.91
2018-12-26T02:59:14.147Z,97746.30
2018-12-26T03:04:17.335Z,97736.33
2018-12-26T03:06:45.863Z,97749.56
2018-12-26T03:09:14.370Z,97732.12
2018-12-26T03:11:42.883Z,97717.81
2018-12-26T03:17:04.617Z,97736.36
2018-12-26T03:22:07.465Z,97748.66
2018-12-26T03:27:10.465Z,97751.78
2018-12-26T03:29:38.975Z,97759.86
2018-12-26T03:34:41.448Z,97771.69
2018-12-26T03:37:09.992Z,97773.13
2018-12-26T03:39:38.491Z,97769.09
2018-12-26T03:42:26.423Z,97757.89
2018-12-26T03:45:34.859Z,97747.52
2018-12-26T03:48:43.320Z,97730.53
2018-12-26T03:51:11.826Z,97720.50
2018-12-26T03:53:59.530Z,97718.70
2018-12-26T03:56:28.040Z,97710.80
2018-12-26T04:02:10.288Z,97716.28
2018-12-26T04:05:18.720Z,97709.63
2018-12-26T04:08:06.572Z,97710.69
2018-12-26T04:10:35.073Z,97700.09
2018-12-26T04:13:43.636Z,97702.48
2018-12-26T04:16:52.072Z,97699.30
2018-12-26T04:19:20.622Z,97703.34
2018-12-26T04:27:31.648Z,97699.72
2018-12-26T04:30:00.249Z,97707.25
2018-12-26T04:32:28.772Z,97699.77
2018-12-26T04:35:16.486Z,97683.86
2018-12-26T04:40:18.753Z,97666.89
2018-12-26T04:42:47.256Z,97669.80
2018-12-26T04:45:15.790Z,97662.00
2018-12-26T04:47:44.288Z,97677.23
2018-12-26T04:50:12.794Z,97670.73
2018-12-26T04:55:15.059Z,97677.14
2018-12-26T05:00:17.796Z,97674.73
2018-12-26T05:02:46.334Z,97691.67
2018-12-26T05:07:49.083Z,97702.52
2018-12-26T05:12:51.240Z,97691.89
2018-12-26T05:15:19.799Z,97684.45
2018-12-26T05:17:48.824Z,97676.75
2018-12-26T05:20:18.503Z,97671.02
2018-12-26T05:23:06.451Z,97672.34
2018-12-26T05:25:34.947Z,97677.72
2018-12-26T05:28:03.441Z,97676.36
2018-12-26T05:30:31.962Z,97672.23
2018-12-26T05:33:00.534Z,97683.87
2018-12-26T05:35:29.034Z,97672.47
2018-12-26T05:40:31.206Z,97670.33
2018-12-26T05:45:33.601Z,97661.75
2018-12-26T05:50:36.544Z,97675.23
2018-12-26T05:55:39.456Z,97675.65
2018-12-26T05:58:07.946Z,97670.69
2018-12-26T06:03:09.985Z,97650.39
2018-12-26T06:05:38.488Z,97657.67
2018-12-26T06:08:46.941Z,97632.51
2018-12-26T06:11:15.430Z,97639.12
2018-12-26T06:13:43.926Z,97623.59
2018-12-26T06:18:46.464Z,97630.16
2018-12-26T06:23:48.717Z,97608.34
2018-12-26T06:26:17.202Z,97613.02
2018-12-26T06:31:20.186Z,97637.77
2018-12-26T06:36:23.103Z,97626.64
2018-12-26T06:41:25.268Z,97596.07
2018-12-26T06:43:53.766Z,97592.02
2018-12-26T06:49:14.944Z,97601.44
2018-12-26T06:54:17.861Z,97628.11
2018-12-26T06:56:46.357Z,97611.55
2018-12-26T07:01:49.095Z,97633.55
2018-12-26T07:04:17.663Z,97627.73
2018-12-26T07:06:46.144Z,97622.34
2018-12-26T07:09:14.642Z,97648.34
2018-12-26T07:14:16.889Z,97637.38
2018-12-26T07:16:45.385Z,97652.55
2018-12-26T07:27:09.610Z,97665.88
2018-12-26T07:29:38.163Z,97660.20
2018-12-26T07:32:06.656Z,97671.93
2018-12-26T07:34:42.189Z,97689.67
2018-12-26T07:39:38.966Z,97681.20
2018-12-26T07:42:07.464Z,97683.37
2018-12-26T07:47:09.599Z,97667.27
2018-12-26T07:49:38.169Z,97673.61
2018-12-26T07:54:40.652Z,97688.34
2018-12-26T07:57:09.179Z,97689.18
2018-12-26T07:59:37.978Z,97711.34
2018-12-26T08:02:07.931Z,97689.80
2018-12-26T08:04:36.409Z,97685.12
2018-12-26T08:07:04.907Z,97698.55
2018-12-26T08:09:33.409Z,97700.69
2018-12-26T08:14:35.619Z,97699.31
2018-12-26T08:17:04.119Z,97681.14
2018-12-26T08:22:06.954Z,97694.70
2018-12-26T08:27:09.829Z,97713.41
2018-12-26T08:29:38.360Z,97710.88
2018-12-26T08:32:06.859Z,97713.16
2018-12-26T08:34:37.504Z,97710.30
2018-12-26T08:37:05.606Z,97719.66
2018-12-26T08:39:34.097Z,97718.74
2018-12-26T08:42:02.591Z,97712.98
2018-12-26T08:47:05.506Z,97717.88
2018-12-26T08:49:34.004Z,97734.33
2018-12-26T08:54:36.981Z,97737.99
2018-12-26T08:57:05.531Z,97748.43
2018-12-26T08:59:34.035Z,97750.97
2018-12-26T09:02:02.536Z,97742.81
2018-12-26T09:07:05.684Z,97736.28
2018-12-26T09:09:34.201Z,97740.34
2018-12-26T09:12:16.918Z,97741.83
2018-12-26T09:14:32.923Z,97750.50
2018-12-26T09:19:35.477Z,97736.97
2018-12-26T09:22:03.970Z,97742.95
2018-12-26T09:27:46.194Z,97731.50
2018-12-26T09:32:48.387Z,97735.36
2018-12-26T09:35:16.891Z,97744.84
2018-12-26T09:40:19.030Z,97751.58
2018-12-26T09:42:47.520Z,97744.83
2018-12-26T09:47:50.350Z,97739.85
2018-12-26T09:52:52.449Z,97734.27
2018-12-26T09:55:20.979Z,97733.77
2018-12-26T09:57:49.479Z,97718.95
2018-12-26T10:00:17.980Z,97706.66
2018-12-26T10:02:46.524Z,97707.22
2018-12-26T10:05:15.077Z,97700.59
2018-12-26T10:07:43.531Z,97695.75
2018-12-26T10:12:46.034Z,97685.33
2018-12-26T10:15:14.830Z,97682.38
2018-12-26T10:17:43.328Z,97672.82
2018-12-26T10:20:11.828Z,97662.93
2018-12-26T10:25:14.640Z,97657.33
2018-12-26T10:30:17.074Z,97651.13
2018-12-26T10:32:45.569Z,97640.39
2018-12-26T10:35:33.474Z,97635.59
2018-12-26T10:38:01.974Z,97629.41
2018-12-26T10:43:17.990Z,97618.91
2018-12-26T10:45:46.483Z,97625.23
2018-12-26T10:48:14.981Z,97617.43
2018-12-26T10:53:17.518Z,97601.80
2018-12-26T10:55:46.126Z,97611.95
2018-12-26T10:58:14.626Z,97602.35
2018-12-26T11:00:43.122Z,97604.91
2018-12-26T11:03:11.941Z,97593.90
2018-12-26T11:05:40.508Z,97593.72
2018-12-26T11:08:09.072Z,97584.94
2018-12-26T11:10:37.622Z,97587.28
2018-12-26T11:13:06.120Z,97585.81
2018-12-26T11:15:34.614Z,97581.34
2018-12-26T11:18:03.384Z,97578.33
2018-12-26T11:20:32.016Z,97588.20
2018-12-26T11:23:00.512Z,97579.20
2018-12-26T11:25:29.106Z,97584.55
2018-12-26T11:27:57.603Z,97585.38
2018-12-26T11:30:26.094Z,97583.23
2018-12-26T11:32:54.700Z,97580.86
2018-12-26T11:35:23.269Z,97570.99
2018-12-26T11:37:51.775Z,97571.72
2018-12-26T11:40:20.491Z,97569.96
2018-12-26T11:42:49.165Z,97572.78
2018-12-26T11:45:17.663Z,97567.64
2018-12-26T11:50:20.046Z,97588.39
2018-12-26T11:52:48.653Z,97586.59
2018-12-26T11:55:17.220Z,97579.55
2018-12-26T11:57:45.709Z,97586.75
2018-12-26T12:00:14.226Z,97601.62
2018-12-26T12:02:44.471Z,97595.20
2018-12-26T12:05:13.046Z,97596.42
2018-12-26T12:10:16.078Z,97592.37
2018-12-26T12:15:38.961Z,97593.21
2018-12-26T12:18:07.517Z,97588.09
2018-12-26T12:20:36.007Z,97590.03
2018-12-26T12:25:38.899Z,97587.03
2018-12-26T12:30:42.112Z,97583.28
2018-12-26T12:36:03.629Z,97587.09
2018-12-26T12:39:12.378Z,97582.59
2018-12-26T12:41:40.871Z,97588.96
2018-12-26T12:44:09.369Z,97593.91
2018-12-26T12:46:57.221Z,97591.55
2018-12-26T12:49:25.719Z,97588.11
2018-12-26T12:51:54.213Z,97593.01
2018-12-26T12:54:42.183Z,97593.34
2018-12-26T12:57:10.681Z,97592.13
2018-12-26T12:59:44.715Z,97593.05
2018-12-26T13:04:43.415Z,97593.14
2018-12-26T13:09:45.890Z,97594.53
2018-12-26T13:12:33.708Z,97599.30
2018-12-26T13:15:21.537Z,97597.25
2018-12-26T13:22:59.067Z,97592.64
2018-12-26T13:25:27.562Z,97588.05
2018-12-26T13:27:56.094Z,97591.13
2018-12-26T13:30:24.628Z,97589.62
2018-12-26T13:32:53.126Z,97594.84
2018-12-26T13:35:21.628Z,97598.65
2018-12-26T13:40:24.474Z,97595.61
2018-12-26T13:42:52.996Z,97600.77
2018-12-26T13:45:21.490Z,97597.30
2018-12-26T13:47:49.984Z,97602.30
2018-12-26T13:52:59.912Z,97598.97
2018-12-26T13:55:47.933Z,97609.00
2018-12-26T13:58:28.527Z,97608.39
2018-12-26T14:03:31.029Z,97620.33
2018-12-26T14:05:59.558Z,97621.89
2018-12-26T14:08:28.053Z,97616.52
2018-12-26T14:10:56.550Z,97630.35
2018-12-26T14:13:25.093Z,97630.16
2018-12-26T14:15:53.588Z,97635.07
2018-12-26T14:18:41.472Z,97634.08
2018-12-26T14:21:49.914Z,97632.80
2018-12-26T14:26:52.385Z,97644.44
2018-12-26T14:29:20.931Z,97640.60
2018-12-26T14:31:49.430Z,97640.52
2018-12-26T14:34:17.925Z,97639.14
2018-12-26T14:39:20.431Z,97642.81
2018-12-26T14:41:48.958Z,97646.06
2018-12-26T14:44:17.454Z,97650.98
2018-12-26T14:46:45.948Z,97654.80
2018-12-26T14:51:48.828Z,97651.03
2018-12-26T14:54:36.824Z,97657.55
2018-12-26T14:57:05.314Z,97651.80
2018-12-26T14:59:46.477Z,97650.75
2018-12-26T15:02:17.990Z,97647.09
2018-12-26T15:04:46.480Z,97653.96
2018-12-26T15:09:49.468Z,97658.73
2018-12-26T15:12:17.958Z,97651.01
2018-12-26T15:14:46.506Z,97655.64
2018-12-26T15:17:15.006Z,97665.52
2018-12-26T15:19:43.507Z,97658.14
2018-12-26T15:24:46.053Z,97660.67
2018-12-26T15:27:14.548Z,97663.25
2018-12-26T15:32:16.919Z,97655.11
2018-12-26T15:34:45.394Z,97649.78
2018-12-26T15:39:48.289Z,97656.00
2018-12-26T15:44:51.302Z,97649.06
2018-12-26T15:47:19.829Z,97644.48
2018-12-26T15:49:48.344Z,97637.52
2018-12-26T15:52:36.159Z,97641.06
2018-12-26T15:55:04.805Z,97638.47
2018-12-26T15:57:33.306Z,97632.95
2018-12-26T16:02:36.311Z,97625.63
2018-12-26T16:05:44.845Z,97622.85
2018-12-26T16:08:13.343Z,97615.78
2018-12-26T16:10:41.847Z,97622.80
2018-12-26T16:15:44.824Z,97626.83
2018-12-26T16:18:13.526Z,97635.05
2018-12-26T16:20:41.960Z,97630.73
2018-12-26T16:23:10.466Z,97623.17
2018-12-26T16:25:39.008Z,97621.13
2018-12-26T16:28:07.507Z,97612.05
2018-12-26T16:30:36.011Z,97612.51
2018-12-26T16:33:04.539Z,97615.39
2018-12-26T16:35:33.040Z,97613.78
2018-12-26T16:38:01.999Z,97621.70
2018-12-26T16:43:06.188Z,97624.13
2018-12-26T16:45:34.730Z,97627.49
2018-12-26T16:48:14.861Z,97629.55
2018-12-26T16:50:33.458Z,97637.03
2018-12-26T16:53:02.088Z,97641.51
2018-12-26T16:55:30.587Z,97632.75
2018-12-26T16:58:18.527Z,97637.64
2018-12-26T17:00:54.804Z,97640.45
2018-12-26T17:03:17.328Z,97640.41
2018-12-26T17:08:20.348Z,97641.48
2018-12-26T17:10:48.873Z,97641.22
2018-12-26T17:13:17.378Z,97636.54
2018-12-26T17:15:45.880Z,97640.91
2018-12-26T17:20:48.064Z,97634.91
2018-12-26T17:23:16.565Z,97646.02
2018-12-26T17:28:19.335Z,97648.13
2018-12-26T17:30:47.896Z,97656.61
2018-12-26T17:33:16.397Z,97663.70
2018-12-26T17:35:44.897Z,97663.34
2018-12-26T17:38:13.499Z,97673.48
2018-12-26T17:40:42.002Z,97673.36
2018-12-26T17:43:10.499Z,97673.16
2018-12-26T17:45:39.073Z,97675.10
2018-12-26T17:48:07.578Z,97670.91
2018-12-26T17:50:55.449Z,97679.09
2018-12-26T17:54:03.911Z,97677.50
2018-12-26T17:57:12.406Z,97679.99
2018-12-26T18:00:20.911Z,97691.91
2018-12-26T18:02:49.444Z,97691.30
2018-12-26T18:05:30.626Z,97691.91
2018-12-26T18:07:59.159Z,97697.92
2018-12-26T18:10:27.673Z,97690.70
2018-12-26T18:12:56.172Z,97685.31
2018-12-26T18:15:24.798Z,97672.81
2018-12-26T18:17:53.310Z,97673.25
2018-12-26T18:20:21.812Z,97675.72
2018-12-26T18:25:24.952Z,97667.91
2018-12-26T18:27:53.600Z,97669.65
2018-12-26T18:30:22.168Z,97670.16
2018-12-26T18:32:50.683Z,97667.17
2018-12-26T18:37:53.326Z,97669.45
2018-12-26T18:42:55.676Z,97671.23
2018-12-26T18:45:24.255Z,97671.16
2018-12-26T18:47:52.802Z,97668.33
2018-12-26T18:50:21.414Z,97669.78
2018-12-26T18:52:49.911Z,97671.92
2018-12-26T18:55:18.510Z,97675.32
2018-12-26T18:57:47.015Z,97675.17
2018-12-26T19:00:15.511Z,97679.45
2018-12-26T19:05:18.053Z,97672.08
2018-12-26T19:07:46.601Z,97673.23
2018-12-26T19:10:17.413Z,97674.94
2018-12-26T19:12:45.921Z,97677.94
2018-12-26T19:17:48.626Z,97665.34
2018-12-26T19:22:51.187Z,97672.85
2018-12-26T19:25:19.748Z,97670.89
2018-12-26T19:30:22.022Z,97683.22
2018-12-26T19:32:50.562Z,97673.70
2018-12-26T19:35:19.112Z,97673.03
2018-12-26T19:37:47.615Z,97676.33
2018-12-26T19:40:16.126Z,97677.39
2018-12-26T19:45:19.096Z,97677.24
2018-12-26T19:47:47.660Z,97670.24
2018-12-26T19:50:16.239Z,97664.97
2018-12-26T19:52:44.740Z,97661.97
2018-12-26T19:58:07.579Z,97648.58
2018-12-26T20:00:36.110Z,97647.27
2018-12-26T20:03:04.684Z,97640.04
2018-12-26T20:05:33.225Z,97644.55
2018-12-26T20:08:01.726Z,97638.34
2018-12-26T20:10:30.234Z,97630.91
2018-12-26T20:15:33.236Z,97634.64
2018-12-26T20:20:36.492Z,97627.30
2018-12-26T20:25:38.740Z,97622.36
2018-12-26T20:28:07.254Z,97621.42
2018-12-26T20:33:09.358Z,97625.31
2018-12-26T20:35:37.874Z,97636.02
2018-12-26T20:38:06.566Z,97631.00
2018-12-26T20:40:35.075Z,97626.27
2018-12-26T20:43:03.664Z,97623.93
2018-12-26T20:45:32.286Z,97624.37
2018-12-26T20:48:00.789Z,97630.16
2018-12-26T20:50:29.316Z,97625.33
2018-12-26T20:55:32.374Z,97632.00
2018-12-26T21:00:34.629Z,97627.67
2018-12-26T21:03:03.124Z,97631.41
2018-12-26T21:08:05.670Z,97629.37
2018-12-26T21:10:34.170Z,97624.00
2018-12-26T21:13:02.772Z,97628.84
2018-12-26T21:15:31.276Z,97626.03
2018-12-26T21:17:59.803Z,97622.02
2018-12-26T21:23:02.326Z,97623.42
2018-12-26T21:25:30.976Z,97624.80
2018-12-26T21:27:59.490Z,97627.09
2018-12-26T21:30:27.998Z,97624.80
2018-12-26T21:32:56.610Z,97632.77
2018-12-26T21:35:25.110Z,97632.37
2018-12-26T21:37:53.614Z,97633.84
2018-12-26T21:40:22.150Z,97630.30
2018-12-26T21:42:50.648Z,97623.42
2018-12-26T21:45:19.158Z,97619.05
2018-12-26T21:47:47.692Z,97624.80
2018-12-26T21:50:16.188Z,97624.63
2018-12-26T21:52:44.698Z,97619.42
2018-12-26T21:57:46.723Z,97614.61
2018-12-26T22:00:15.234Z,97623.66
2018-12-26T22:02:43.849Z,97632.23
2018-12-26T22:05:12.362Z,97630.30
2018-12-26T22:07:40.872Z,97631.44
2018-12-26T22:12:43.629Z,97636.61
2018-12-26T22:15:12.198Z,97634.30
2018-12-26T22:17:40.699Z,97632.73
2018-12-26T22:20:09.208Z,97638.03
2018-12-26T22:22:37.818Z,97651.22
2018-12-26T22:25:06.389Z,97639.34
2018-12-26T22:27:34.924Z,97642.64
2018-12-26T22:32:57.744Z,97639.98
2018-12-26T22:35:26.415Z,97643.66
2018-12-26T22:37:54.916Z,97647.55
2018-12-26T22:40:23.678Z,97646.25
2018-12-26T22:42:52.177Z,97643.77
2018-12-26T22:45:20.679Z,97634.78
2018-12-26T22:47:49.310Z,97631.72
2018-12-26T22:50:17.822Z,97628.81
2018-12-26T22:52:46.331Z,97632.31
2018-12-26T22:55:15.117Z,97625.33
2018-12-26T22:57:43.624Z,97627.98
2018-12-26T23:05:35.907Z,97608.40
2018-12-26T23:10:38.762Z,97604.79
2018-12-26T23:13:07.391Z,97607.42
2018-12-26T23:15:35.911Z,97600.80
2018-12-26T23:18:04.419Z,97598.94
2018-12-26T23:23:07.639Z,97598.09
2018-12-26T23:25:36.270Z,97593.77
2018-12-26T23:28:04.775Z,97592.90
2018-12-26T23:30:33.281Z,97586.03
2018-12-26T23:33:01.813Z,97584.09
2018-12-26T23:35:30.320Z,97578.92
2018-12-26T23:37:58.820Z,97587.95
2018-12-26T23:43:01.455Z,97583.01
2018-12-26T23:48:04.065Z,97569.95
2018-12-26T23:53:06.583Z,97567.11
2018-12-26T23:55:35.125Z,97568.31
2018-12-26T23:58:03.634Z,97566.83
